createdAt,value
2023-04-02T00:00:21.874Z,100303.50
2023-04-02T00:02:59.911Z,100315.25
2023-04-02T00:05:55.869Z,100303.94
2023-04-02T00:08:26.944Z,100306.94
2023-04-02T00:10:57.388Z,100319.78
2023-04-02T00:13:32.126Z,100333.31
2023-04-02T00:16:03.171Z,100328.44
2023-04-02T00:18:33.563Z,100346.13
2023-04-02T00:21:11.588Z,100338.25
2023-04-02T00:23:41.191Z,100344.13
2023-04-02T00:26:23.029Z,100346.69
2023-04-02T00:28:51.995Z,100334.06
2023-04-02T00:31:21.463Z,100356.34
2023-04-02T00:33:50.386Z,100352.91
2023-04-02T00:36:22.475Z,100358.25
2023-04-02T00:38:50.669Z,100372.91
2023-04-02T00:41:23.480Z,100373.13
2023-04-02T00:43:54.864Z,100368.25
2023-04-02T00:46:30.285Z,100375.69
2023-04-02T00:49:02.600Z,100374.94
2023-04-02T00:51:36.473Z,100378.34
2023-04-02T00:54:07.573Z,100393.47
2023-04-02T00:56:41.881Z,100393.47
2023-04-02T00:59:20.674Z,100405.34
2023-04-02T01:01:54.337Z,100405.19
2023-04-02T01:04:34.094Z,100409.66
2023-04-02T01:07:08.597Z,100410.50
2023-04-02T01:10:02.344Z,100423.22
2023-04-02T01:12:41.521Z,100422.13
2023-04-02T01:15:14.963Z,100417.22
2023-04-02T01:17:58.520Z,100420.91
2023-04-02T01:20:52.623Z,100432.16
2023-04-02T01:23:29.295Z,100425.91
2023-04-02T01:26:07.409Z,100420.91
2023-04-02T01:28:57.987Z,100440.88
2023-04-02T01:31:27.419Z,100452.19
2023-04-02T01:33:56.260Z,100458.13
2023-04-02T01:36:34.985Z,100459.66
2023-04-02T01:39:12.305Z,100462.22
2023-04-02T01:41:45.255Z,100463.34
2023-04-02T01:44:20.946Z,100468.75
2023-04-02T01:46:50.578Z,100476.41
2023-04-02T01:49:22.085Z,100475.66
2023-04-02T01:51:55.355Z,100483.97
2023-04-02T01:54:24.750Z,100491.81
2023-04-02T01:56:52.915Z,100494.34
2023-04-02T01:59:24.242Z,100510.66
2023-04-02T02:02:02.639Z,100516.63
2023-04-02T02:04:33.365Z,100527.09
2023-04-02T02:07:02.605Z,100531.13
2023-04-02T02:09:35.354Z,100529.00
2023-04-02T02:12:04.965Z,100545.56
2023-04-02T02:14:34.795Z,100549.53
2023-04-02T02:17:04.288Z,100552.84
2023-04-02T02:19:36.955Z,100558.41
2023-04-02T02:22:13.362Z,100557.13
2023-04-02T02:24:43.047Z,100563.38
2023-04-02T02:27:44.223Z,100550.91
2023-04-02T02:30:18.678Z,100571.16
2023-04-02T02:32:54.824Z,100576.56
2023-04-02T02:35:27.388Z,100577.41
2023-04-02T02:38:02.614Z,100587.91
2023-04-02T02:40:35.368Z,100590.34
2023-04-02T02:43:09.877Z,100589.50
2023-04-02T02:45:42.372Z,100597.03
2023-04-02T02:48:14.631Z,100601.56
2023-04-02T02:50:43.804Z,100618.00
2023-04-02T02:53:20.061Z,100619.28
2023-04-02T02:55:50.430Z,100612.91
2023-04-02T02:58:27.493Z,100628.66
2023-04-02T03:01:18.784Z,100623.97
2023-04-02T03:03:48.879Z,100647.50
2023-04-02T03:06:20.664Z,100639.00
2023-04-02T03:09:02.296Z,100640.69
2023-04-02T03:11:38.304Z,100645.94
2023-04-02T03:14:19.208Z,100650.63
2023-04-02T03:16:53.489Z,100660.28
2023-04-02T03:19:32.629Z,100658.00
2023-04-02T03:22:07.885Z,100672.75
2023-04-02T03:24:47.060Z,100676.72
2023-04-02T03:27:21.689Z,100675.72
2023-04-02T03:29:59.645Z,100679.41
2023-04-02T03:32:33.618Z,100694.00
2023-04-02T03:35:06.463Z,100696.81
2023-04-02T03:37:42.112Z,100697.25
2023-04-02T03:40:16.851Z,100692.13
2023-04-02T03:42:49.731Z,100719.44
2023-04-02T03:45:22.276Z,100714.94
2023-04-02T03:47:57.559Z,100724.72
2023-04-02T03:50:31.621Z,100733.06
2023-04-02T03:53:03.171Z,100738.44
2023-04-02T03:55:36.973Z,100752.63
2023-04-02T03:58:12.226Z,100749.50
2023-04-02T04:00:47.629Z,100753.50
2023-04-02T04:03:21.618Z,100762.25
2023-04-02T04:05:53.588Z,100763.09
2023-04-02T04:08:26.351Z,100768.50
2023-04-02T04:10:57.034Z,100779.84
2023-04-02T04:13:32.888Z,100774.81
2023-04-02T04:16:06.269Z,100786.56
2023-04-02T04:18:46.714Z,100793.59
2023-04-02T04:21:29.787Z,100802.53
2023-04-02T04:24:04.777Z,100805.22
2023-04-02T04:26:42.339Z,100812.06
2023-04-02T04:29:28.245Z,100824.06
2023-04-02T04:32:01.532Z,100799.78
2023-04-02T04:34:46.873Z,100810.88
2023-04-02T04:37:25.100Z,100827.34
2023-04-02T04:39:58.776Z,100814.63
2023-04-02T04:42:32.256Z,100836.44
2023-04-02T04:45:18.748Z,100847.31
2023-04-02T04:47:54.836Z,100842.00
2023-04-02T04:50:32.168Z,100851.28
2023-04-02T04:53:07.755Z,100869.38
2023-04-02T04:55:39.668Z,100865.34
2023-04-02T04:58:19.684Z,100877.03
2023-04-02T05:00:57.550Z,100878.59
2023-04-02T05:03:32.134Z,100878.13
2023-04-02T05:06:12.832Z,100900.56
2023-04-02T05:08:46.303Z,100880.78
2023-04-02T05:11:21.925Z,100905.53
2023-04-02T05:13:54.474Z,100908.75
2023-04-02T05:16:27.384Z,100922.47
2023-04-02T05:19:03.677Z,100920.56
2023-04-02T05:21:43.341Z,100923.19
2023-04-02T05:24:34.325Z,100921.88
2023-04-02T05:27:07.546Z,100938.03
2023-04-02T05:29:39.808Z,100943.16
2023-04-02T05:32:14.781Z,100946.69
2023-04-02T05:34:48.026Z,100947.06
2023-04-02T05:37:21.252Z,100958.56
2023-04-02T05:39:53.276Z,100960.78
2023-04-02T05:42:24.704Z,100972.94
2023-04-02T05:45:09.467Z,100951.69
2023-04-02T05:47:44.009Z,100982.56
2023-04-02T05:50:26.133Z,100976.41
2023-04-02T05:53:12.897Z,100983.91
2023-04-02T05:55:52.922Z,101000.03
2023-04-02T05:58:36.011Z,100992.81
2023-04-02T06:01:23.558Z,101004.06
2023-04-02T06:04:01.046Z,100997.63
2023-04-02T06:06:46.138Z,101011.34
2023-04-02T06:09:20.943Z,101022.66
2023-04-02T06:12:00.448Z,101019.88
2023-04-02T06:14:31.528Z,101022.44
2023-04-02T06:16:59.461Z,101023.34
2023-04-02T06:19:32.876Z,101043.19
2023-04-02T06:22:11.584Z,101049.94
2023-04-02T06:24:42.392Z,101051.19
2023-04-02T06:27:16.171Z,101056.91
2023-04-02T06:29:47.380Z,101069.91
2023-04-02T06:32:24.006Z,101094.34
2023-04-02T06:34:52.613Z,101077.72
2023-04-02T06:37:27.799Z,101093.22
2023-04-02T06:40:30.040Z,101094.31
2023-04-02T06:43:00.253Z,101099.94
2023-04-02T06:45:42.894Z,101104.19
2023-04-02T06:48:33.237Z,101111.69
2023-04-02T06:51:07.100Z,101116.03
2023-04-02T06:53:37.866Z,101118.16
2023-04-02T06:56:19.880Z,101118.72
2023-04-02T06:58:47.834Z,101131.41
2023-04-02T07:01:21.479Z,101130.34
2023-04-02T07:03:49.695Z,101146.38
2023-04-02T07:06:27.286Z,101134.63
2023-04-02T07:08:59.164Z,101156.91
2023-04-02T07:11:28.569Z,101154.66
2023-04-02T07:13:59.934Z,101159.94
2023-04-02T07:16:30.282Z,101167.44
2023-04-02T07:18:59.638Z,101168.28
2023-04-02T07:21:29.701Z,101167.09
2023-04-02T07:23:57.854Z,101196.56
2023-04-02T07:26:30.074Z,101190.00
2023-04-02T07:28:58.331Z,101199.81
2023-04-02T07:31:29.143Z,101187.28
2023-04-02T07:34:00.137Z,101218.38
2023-04-02T07:36:30.570Z,101212.44
2023-04-02T07:38:59.672Z,101208.09
2023-04-02T07:41:27.568Z,101216.66
2023-04-02T07:43:56.788Z,101226.94
2023-04-02T07:46:25.984Z,101230.72
2023-04-02T07:48:54.431Z,101228.63
2023-04-02T07:51:24.417Z,101241.44
2023-04-02T07:53:55.745Z,101237.91
2023-04-02T07:56:25.945Z,101258.25
2023-04-02T07:58:54.000Z,101251.72
2023-04-02T08:01:25.712Z,101253.28
2023-04-02T08:03:54.833Z,101262.59
2023-04-02T08:06:23.842Z,101259.38
2023-04-02T08:08:52.055Z,101264.78
2023-04-02T08:11:19.997Z,101266.78
2023-04-02T08:13:48.051Z,101280.22
2023-04-02T08:16:16.858Z,101288.06
2023-04-02T08:18:47.540Z,101293.91
2023-04-02T08:21:16.692Z,101298.59
2023-04-02T08:23:44.752Z,101279.34
2023-04-02T08:26:18.212Z,101297.88
2023-04-02T08:28:46.031Z,101299.47
2023-04-02T08:31:13.918Z,101303.25
2023-04-02T08:33:41.669Z,101306.19
2023-04-02T08:36:16.797Z,101309.56
2023-04-02T08:38:44.737Z,101308.38
2023-04-02T08:41:21.543Z,101310.31
2023-04-02T08:44:02.891Z,101329.44
2023-04-02T08:46:38.437Z,101335.09
2023-04-02T08:49:13.557Z,101331.56
2023-04-02T08:51:43.131Z,101339.81
2023-04-02T08:54:27.374Z,101349.09
2023-04-02T08:57:00.047Z,101346.88
2023-04-02T08:59:33.862Z,101352.28
2023-04-02T09:02:15.517Z,101354.56
2023-04-02T09:04:43.697Z,101358.94
2023-04-02T09:07:16.698Z,101364.41
2023-04-02T09:09:48.604Z,101379.66
2023-04-02T09:12:19.946Z,101377.09
2023-04-02T09:15:00.786Z,101374.38
2023-04-02T09:17:31.207Z,101371.09
2023-04-02T09:20:09.580Z,101371.72
2023-04-02T09:22:38.786Z,101379.06
2023-04-02T09:25:14.576Z,101388.41
2023-04-02T09:27:42.362Z,101386.38
2023-04-02T09:30:24.798Z,101392.06
2023-04-02T09:32:54.086Z,101400.38
2023-04-02T09:35:26.518Z,101400.47
2023-04-02T09:38:18.583Z,101398.22
2023-04-02T09:40:50.063Z,101402.66
2023-04-02T09:43:20.432Z,101402.75
2023-04-02T09:45:58.618Z,101422.91
2023-04-02T09:48:30.325Z,101411.34
2023-04-02T09:51:13.278Z,101413.88
2023-04-02T09:53:43.540Z,101426.56
2023-04-02T09:56:17.112Z,101421.50
2023-04-02T09:58:47.277Z,101427.75
2023-04-02T10:01:29.193Z,101431.41
2023-04-02T10:03:59.233Z,101433.78
2023-04-02T10:06:29.461Z,101456.50
2023-04-02T10:08:58.699Z,101468.16
2023-04-02T10:11:43.719Z,101442.06
2023-04-02T10:14:20.035Z,101458.13
2023-04-02T10:16:51.962Z,101463.69
2023-04-02T10:19:27.472Z,101463.50
2023-04-02T10:21:56.529Z,101465.59
2023-04-02T10:24:28.745Z,101472.78
2023-04-02T10:27:09.559Z,101487.88
2023-04-02T10:29:49.555Z,101476.84
2023-04-02T10:32:21.382Z,101475.94
2023-04-02T10:34:57.513Z,101476.16
2023-04-02T10:38:00.462Z,101488.72
2023-04-02T10:40:36.084Z,101498.34
2023-04-02T10:43:28.136Z,101488.47
2023-04-02T10:46:02.138Z,101498.22
2023-04-02T10:48:38.696Z,101500.19
2023-04-02T10:51:12.874Z,101507.69
2023-04-02T10:53:49.177Z,101510.28
2023-04-02T10:56:18.417Z,101502.44
2023-04-02T10:58:55.601Z,101508.56
2023-04-02T11:01:29.936Z,101512.28
2023-04-02T11:04:02.496Z,101511.56
2023-04-02T11:06:38.969Z,101521.38
2023-04-02T11:09:16.951Z,101531.06
2023-04-02T11:11:49.782Z,101541.09
2023-04-02T11:14:21.747Z,101540.50
2023-04-02T11:16:51.291Z,101531.38
2023-04-02T11:19:29.125Z,101541.78
2023-04-02T11:22:00.983Z,101545.66
2023-04-02T11:24:39.670Z,101547.25
2023-04-02T11:27:21.922Z,101552.16
2023-04-02T11:29:52.792Z,101549.78
2023-04-02T11:32:40.695Z,101554.06
2023-04-02T11:35:36.493Z,101564.88
2023-04-02T11:38:40.840Z,101559.69
2023-04-02T11:41:08.768Z,101561.13
2023-04-02T11:43:52.126Z,101559.22
2023-04-02T11:46:42.616Z,101562.50
2023-04-02T11:49:57.227Z,101573.69
2023-04-02T11:52:28.035Z,101564.94
2023-04-02T11:55:02.635Z,101563.41
2023-04-02T11:57:43.211Z,101580.59
2023-04-02T12:00:24.496Z,101578.59
2023-04-02T12:03:06.792Z,101575.09
2023-04-02T12:05:43.076Z,101577.13
2023-04-02T12:08:23.209Z,101590.59
2023-04-02T12:10:57.666Z,101585.00
2023-04-02T12:13:51.982Z,101592.41
2023-04-02T12:16:24.285Z,101587.78
2023-04-02T12:18:54.858Z,101589.34
2023-04-02T12:21:25.429Z,101604.31
2023-04-02T12:23:55.584Z,101615.78
2023-04-02T12:26:42.506Z,101615.47
2023-04-02T12:29:31.067Z,101617.28
2023-04-02T12:32:01.459Z,101614.09
2023-04-02T12:34:31.079Z,101620.34
2023-04-02T12:37:05.440Z,101623.34
2023-04-02T12:39:35.050Z,101624.03
2023-04-02T12:42:02.873Z,101627.91
2023-04-02T12:44:32.731Z,101624.16
2023-04-02T12:47:02.093Z,101638.31
2023-04-02T12:49:36.981Z,101635.09
2023-04-02T12:52:07.544Z,101639.97
2023-04-02T12:54:39.061Z,101650.13
2023-04-02T12:57:33.815Z,101659.91
2023-04-02T13:00:06.161Z,101656.94
2023-04-02T13:02:45.977Z,101646.66
2023-04-02T13:05:14.402Z,101656.44
2023-04-02T13:07:48.265Z,101658.03
2023-04-02T13:10:26.200Z,101644.47
2023-04-02T13:12:57.016Z,101657.88
2023-04-02T13:15:28.470Z,101656.16
2023-04-02T13:18:20.060Z,101653.44
2023-04-02T13:20:57.595Z,101660.16
2023-04-02T13:23:33.804Z,101645.59
2023-04-02T13:26:05.623Z,101646.06
2023-04-02T13:28:33.582Z,101648.47
2023-04-02T13:31:01.808Z,101636.91
2023-04-02T13:33:31.109Z,101639.06
2023-04-02T13:35:59.010Z,101644.16
2023-04-02T13:38:26.868Z,101640.91
2023-04-02T13:40:54.615Z,101641.03
2023-04-02T13:43:22.345Z,101637.34
2023-04-02T13:45:52.902Z,101633.31
2023-04-02T13:48:24.518Z,101642.59
2023-04-02T13:50:53.917Z,101663.84
2023-04-02T13:53:28.946Z,101660.72
2023-04-02T13:55:57.213Z,101654.28
2023-04-02T13:58:24.960Z,101652.97
2023-04-02T14:00:52.865Z,101653.31
2023-04-02T14:03:24.694Z,101654.31
2023-04-02T14:06:03.009Z,101653.63
2023-04-02T14:08:41.476Z,101664.47
2023-04-02T14:11:24.835Z,101666.28
2023-04-02T14:14:08.347Z,101674.16
2023-04-02T14:17:00.183Z,101671.31
2023-04-02T14:19:50.896Z,101664.88
2023-04-02T14:22:31.627Z,101669.00
2023-04-02T14:25:09.820Z,101662.00
2023-04-02T14:27:45.892Z,101666.59
2023-04-02T14:30:20.756Z,101666.50
2023-04-02T14:32:56.711Z,101665.53
2023-04-02T14:35:30.197Z,101665.06
2023-04-02T14:38:09.618Z,101675.72
2023-04-02T14:40:46.169Z,101673.16
2023-04-02T14:43:20.532Z,101682.63
2023-04-02T14:45:58.359Z,101679.69
2023-04-02T14:48:38.373Z,101678.44
2023-04-02T14:51:14.227Z,101678.94
2023-04-02T14:53:55.581Z,101677.25
2023-04-02T14:56:25.633Z,101677.97
2023-04-02T14:59:03.550Z,101685.50
2023-04-02T15:01:38.215Z,101683.63
2023-04-02T15:04:13.237Z,101687.75
2023-04-02T15:06:45.071Z,101679.53
2023-04-02T15:09:19.897Z,101670.22
2023-04-02T15:11:51.586Z,101676.31
2023-04-02T15:14:23.015Z,101676.66
2023-04-02T15:16:51.096Z,101679.59
2023-04-02T15:19:19.916Z,101671.88
2023-04-02T15:22:08.364Z,101677.63
2023-04-02T15:24:49.433Z,101683.66
2023-04-02T15:27:37.157Z,101685.25
2023-04-02T15:30:15.373Z,101694.88
2023-04-02T15:32:44.271Z,101688.78
2023-04-02T15:35:28.516Z,101685.31
2023-04-02T15:38:06.751Z,101685.28
2023-04-02T15:40:49.742Z,101688.72
2023-04-02T15:43:23.586Z,101703.72
2023-04-02T15:45:59.021Z,101697.31
2023-04-02T15:48:44.504Z,101708.03
2023-04-02T15:51:26.461Z,101715.44
2023-04-02T15:54:03.775Z,101716.03
2023-04-02T15:56:42.317Z,101726.63
2023-04-02T15:59:45.462Z,101715.47
2023-04-02T16:02:33.733Z,101724.63
2023-04-02T16:05:04.716Z,101727.34
2023-04-02T16:07:57.636Z,101731.44
2023-04-02T16:10:40.987Z,101728.84
2023-04-02T16:13:18.797Z,101735.78
2023-04-02T16:15:52.209Z,101729.09
2023-04-02T16:18:29.771Z,101719.50
2023-04-02T16:21:02.390Z,101732.97
2023-04-02T16:23:36.997Z,101735.75
2023-04-02T16:26:19.888Z,101749.34
2023-04-02T16:28:56.575Z,101752.91
2023-04-02T16:31:32.729Z,101760.75
2023-04-02T16:34:03.653Z,101751.75
2023-04-02T16:36:43.648Z,101750.31
2023-04-02T16:39:22.958Z,101765.19
2023-04-02T16:42:01.912Z,101763.19
2023-04-02T16:44:41.291Z,101765.19
2023-04-02T16:47:24.507Z,101767.78
2023-04-02T16:49:59.813Z,101776.06
2023-04-02T16:52:40.312Z,101769.16
2023-04-02T16:55:27.070Z,101775.31
2023-04-02T16:58:08.289Z,101790.47
2023-04-02T17:00:47.545Z,101787.19
2023-04-02T17:03:30.661Z,101791.78
2023-04-02T17:06:05.690Z,101795.34
2023-04-02T17:08:41.672Z,101803.78
2023-04-02T17:11:11.270Z,101803.22
2023-04-02T17:13:42.093Z,101820.34
2023-04-02T17:16:20.742Z,101816.66
2023-04-02T17:18:50.724Z,101819.78
2023-04-02T17:21:21.527Z,101821.09
2023-04-02T17:23:56.438Z,101818.06
2023-04-02T17:26:28.385Z,101822.66
2023-04-02T17:28:58.549Z,101825.50
2023-04-02T17:31:34.141Z,101823.50
2023-04-02T17:34:10.754Z,101827.50
2023-04-02T17:36:45.032Z,101828.22
2023-04-02T17:39:21.376Z,101831.34
2023-04-02T17:41:53.087Z,101842.63
2023-04-02T17:44:35.869Z,101848.94
2023-04-02T17:47:14.073Z,101848.63
2023-04-02T17:49:53.794Z,101844.66
2023-04-02T17:52:26.470Z,101849.50
2023-04-02T17:55:04.365Z,101852.59
2023-04-02T17:57:44.318Z,101853.31
2023-04-02T18:00:25.506Z,101859.16
2023-04-02T18:03:11.223Z,101858.03
2023-04-02T18:05:44.096Z,101862.06
2023-04-02T18:08:24.149Z,101866.06
2023-04-02T18:11:06.324Z,101875.13
2023-04-02T18:13:36.121Z,101870.25
2023-04-02T18:16:19.493Z,101875.75
2023-04-02T18:19:03.447Z,101883.75
2023-04-02T18:21:38.430Z,101890.41
2023-04-02T18:24:23.914Z,101886.09
2023-04-02T18:26:56.177Z,101900.81
2023-04-02T18:29:32.250Z,101902.50
2023-04-02T18:32:09.647Z,101904.34
2023-04-02T18:35:02.146Z,101908.75
2023-04-02T18:37:38.236Z,101914.75
2023-04-02T18:40:27.250Z,101912.16
2023-04-02T18:43:03.653Z,101919.53
2023-04-02T18:45:43.311Z,101916.44
2023-04-02T18:48:22.644Z,101920.47
2023-04-02T18:50:52.877Z,101927.38
2023-04-02T18:53:24.985Z,101931.91
2023-04-02T18:55:56.206Z,101935.97
2023-04-02T18:58:28.045Z,101946.50
2023-04-02T19:00:57.154Z,101944.91
2023-04-02T19:03:30.177Z,101957.22
2023-04-02T19:06:02.974Z,101956.53
2023-04-02T19:08:35.221Z,101962.16
2023-04-02T19:11:10.155Z,101962.41
2023-04-02T19:13:38.872Z,101961.63
2023-04-02T19:16:27.707Z,101960.50
2023-04-02T19:19:05.659Z,101970.63
2023-04-02T19:21:44.186Z,101967.31
2023-04-02T19:24:27.568Z,101971.84
2023-04-02T19:26:59.932Z,101973.59
2023-04-02T19:29:40.444Z,101979.56
2023-04-02T19:32:19.011Z,101982.31
2023-04-02T19:34:54.573Z,101997.75
2023-04-02T19:37:32.694Z,101990.78
2023-04-02T19:40:12.806Z,102003.56
2023-04-02T19:42:47.293Z,102005.88
2023-04-02T19:45:28.253Z,102004.59
2023-04-02T19:47:57.513Z,102013.69
2023-04-02T19:50:25.636Z,102012.09
2023-04-02T19:52:55.149Z,102021.53
2023-04-02T19:55:23.311Z,102023.63
2023-04-02T19:57:52.795Z,102014.53
2023-04-02T20:00:22.610Z,102019.69
2023-04-02T20:02:50.739Z,102031.09
2023-04-02T20:05:18.654Z,102024.72
2023-04-02T20:07:47.007Z,102035.41
2023-04-02T20:10:18.238Z,102035.16
2023-04-02T20:12:46.235Z,102043.00
2023-04-02T20:15:14.477Z,102045.91
2023-04-02T20:17:42.372Z,102048.69
2023-04-02T20:20:13.498Z,102048.31
2023-04-02T20:22:42.383Z,102050.44
2023-04-02T20:25:11.288Z,102057.47
2023-04-02T20:27:40.407Z,102053.00
2023-04-02T20:30:09.355Z,102059.94
2023-04-02T20:32:38.306Z,102066.44
2023-04-02T20:35:07.130Z,102069.41
2023-04-02T20:37:35.068Z,102080.47
2023-04-02T20:40:03.093Z,102074.81
2023-04-02T20:42:31.206Z,102071.50
2023-04-02T20:45:00.380Z,102086.53
2023-04-02T20:47:28.196Z,102090.06
2023-04-02T20:49:56.280Z,102087.59
2023-04-02T20:52:24.374Z,102089.47
2023-04-02T20:54:52.378Z,102098.44
2023-04-02T20:57:22.001Z,102095.75
2023-04-02T20:59:49.755Z,102088.72
2023-04-02T21:02:19.131Z,102099.28
2023-04-02T21:04:46.989Z,102112.66
2023-04-02T21:07:14.716Z,102105.31
2023-04-02T21:09:42.601Z,102110.56
2023-04-02T21:12:11.504Z,102116.31
2023-04-02T21:14:40.119Z,102121.59
2023-04-02T21:17:08.701Z,102120.00
2023-04-02T21:19:38.658Z,102129.75
2023-04-02T21:22:06.480Z,102129.63
2023-04-02T21:24:34.331Z,102132.13
2023-04-02T21:27:02.584Z,102131.31
2023-04-02T21:29:30.433Z,102136.31
2023-04-02T21:31:59.807Z,102138.72
2023-04-02T21:34:29.320Z,102135.16
2023-04-02T21:36:58.366Z,102140.91
2023-04-02T21:39:27.234Z,102137.25
2023-04-02T21:41:55.066Z,102150.47
2023-04-02T21:44:24.532Z,102150.03
2023-04-02T21:46:54.129Z,102153.22
2023-04-02T21:49:23.186Z,102155.84
2023-04-02T21:51:52.375Z,102163.19
2023-04-02T21:54:22.206Z,102163.41
2023-04-02T21:56:51.588Z,102167.00
2023-04-02T21:59:20.125Z,102170.34
2023-04-02T22:01:50.499Z,102170.97
2023-04-02T22:04:20.804Z,102167.34
2023-04-02T22:06:49.513Z,102176.63
2023-04-02T22:09:19.599Z,102172.84
2023-04-02T22:11:51.178Z,102175.53
2023-04-02T22:14:19.822Z,102181.06
2023-04-02T22:16:47.723Z,102182.47
2023-04-02T22:19:17.365Z,102187.09
2023-04-02T22:21:46.168Z,102187.00
2023-04-02T22:24:16.257Z,102175.63
2023-04-02T22:26:44.578Z,102196.88
2023-04-02T22:29:14.008Z,102206.41
2023-04-02T22:31:41.750Z,102196.66
2023-04-02T22:34:10.084Z,102198.28
2023-04-02T22:36:37.843Z,102201.22
2023-04-02T22:39:09.707Z,102210.38
2023-04-02T22:41:38.320Z,102210.16
2023-04-02T22:44:06.631Z,102206.19
2023-04-02T22:46:36.047Z,102208.88
2023-04-02T22:49:04.464Z,102214.28
2023-04-02T22:51:32.235Z,102221.53
2023-04-02T22:53:59.982Z,102220.22
2023-04-02T22:56:31.908Z,102230.16
2023-04-02T22:59:00.709Z,102232.22
2023-04-02T23:01:32.101Z,102237.25
2023-04-02T23:04:01.384Z,102238.44
2023-04-02T23:06:29.530Z,102244.16
2023-04-02T23:08:57.407Z,102240.94
2023-04-02T23:11:27.445Z,102242.00
2023-04-02T23:13:57.801Z,102242.09
2023-04-02T23:16:27.833Z,102245.09
2023-04-02T23:18:56.412Z,102253.78
2023-04-02T23:21:26.349Z,102255.63
2023-04-02T23:23:54.209Z,102257.28
2023-04-02T23:26:23.809Z,102253.19
2023-04-02T23:28:52.130Z,102260.69
2023-04-02T23:31:22.277Z,102255.53
2023-04-02T23:33:50.570Z,102262.00
2023-04-02T23:36:21.869Z,102264.78
2023-04-02T23:38:54.869Z,102269.97
2023-04-02T23:41:24.189Z,102273.19
2023-04-02T23:43:52.337Z,102263.06
2023-04-02T23:46:20.510Z,102272.94
2023-04-02T23:48:51.382Z,102270.78
2023-04-02T23:51:19.519Z,102272.56
2023-04-02T23:53:47.340Z,102275.47
2023-04-02T23:56:16.493Z,102268.41
2023-04-02T23:58:44.519Z,102272.47
